DW9665 Sarajevo BA current weather conditions

sailwx.info

Wind from 090 at 1 knots gusting 5

Air temperature 8.9° C
Dewpoint 0.6° C

Last reported at 2015-Mar-31 07:47 UTC.
Time now 2015-Mar-31 08:24 UTC

Location: N 43°50' E 018°21'.
View on Google Maps.

See reports from other nearby stations

  
Tides and Currents Weather Stations Pressure Air Temp Water Temp Dewpoint Dewpoint Depression Visibility Wind Speed Wind Dir Waves Ship Positions
date/time (UTC)wind fromknots sea level pressurealtimeterstation pressurevisibilityair tempwater tempwave heightnotes
2015-Mar-31 07:47 090 1 gusting 5 8.9
2015-Mar-31 07:32 135 1 gusting 4 8.3
2015-Mar-31 07:17 158 2 gusting 3 7.8
2015-Mar-31 06:47 068 7.8
2015-Mar-31 06:32 158 6.1
2015-Mar-31 06:17 270 0 gusting 2 5.0
2015-Mar-31 06:02 270 0 gusting 5 4.4
2015-Mar-31 05:47 180 0 gusting 4 4.4
2015-Mar-31 05:32 270 1 gusting 1 4.4
2015-Mar-31 05:17 270 4.4
2015-Mar-31 05:02 090 3.9
2015-Mar-31 04:47 112 3.9
2015-Mar-31 04:32 158 4.4
2015-Mar-31 04:17 158 0 gusting 3 4.4
2015-Mar-31 04:02 270 4.4
2015-Mar-31 03:47 292 4.4
2015-Mar-31 03:32 270 4.4
2015-Mar-31 03:17 270 4.4
2015-Mar-31 03:02 158 4.4
2015-Mar-31 02:47 270 5.0
2015-Mar-31 02:32 270 5.0
2015-Mar-31 02:17 338 0 gusting 3 5.0
2015-Mar-31 02:02 338 5.0
2015-Mar-31 01:47 135 5.0
2015-Mar-31 01:32 292 0 gusting 2 5.0
2015-Mar-31 01:17 180 5.6
2015-Mar-31 01:02 180 1 gusting 3 5.6
2015-Mar-31 00:47 112 0 gusting 7 5.6
2015-Mar-31 00:32 292 5 gusting 11 5.6
2015-Mar-31 00:17 292 5 gusting 11 5.6
2015-Mar-31 00:02 338 6 gusting 13 6.1
2015-Mar-30 23:47 292 1 gusting 2 6.7
2015-Mar-30 23:32 270 2 gusting 2 6.7
2015-Mar-30 23:17 270 3 gusting 3 7.2
2015-Mar-30 23:02 292 3 gusting 3 7.2
2015-Mar-30 22:47 338 5 gusting 11 7.8
2015-Mar-30 22:32 022 6 gusting 11 8.3
2015-Mar-30 22:17 338 6 gusting 11 8.9
2015-Mar-30 22:02 022 2 gusting 4 8.9
2015-Mar-30 21:47 8.9
2015-Mar-30 21:32 022 1 gusting 3 8.9
2015-Mar-30 21:17 338 1 gusting 1 8.3
2015-Mar-30 21:02 315 8.9
2015-Mar-30 20:47 180 9.4
2015-Mar-30 20:32 068 0 gusting 2 9.4
2015-Mar-30 20:17 090 1 gusting 3 9.4
2015-Mar-30 20:02 022 1 gusting 3 9.4
2015-Mar-30 19:47 068 0 gusting 3 10.0
2015-Mar-30 19:17 158 3 gusting 5 10.0
2015-Mar-30 19:02 112 3 gusting 7 10.0
2015-Mar-30 18:47 158 1 gusting 2 10.0
2015-Mar-30 18:32 022 1 gusting 7 10.0
2015-Mar-30 18:17 180 3 gusting 7 10.0
2015-Mar-30 17:47 090 0 gusting 4 10.0
2015-Mar-30 17:32 022 3 gusting 5 10.0
2015-Mar-30 17:17 112 1 gusting 6 10.0
2015-Mar-30 17:02 180 4 gusting 5 10.6
2015-Mar-30 16:47 068 10.6
2015-Mar-30 16:32 180 2 gusting 7 11.1
2015-Mar-30 16:17 180 4 gusting 9 11.1
2015-Mar-30 16:02 158 6 gusting 6 11.7
2015-Mar-30 15:47 158 2 gusting 6 12.2
2015-Mar-30 15:32 158 0 gusting 8 12.2
2015-Mar-30 15:17 270 0 gusting 3 13.3
2015-Mar-30 15:02 158 2 gusting 6 13.3
2015-Mar-30 14:47 135 0 gusting 3 13.3
2015-Mar-30 14:32 090 0 gusting 4 12.8
2015-Mar-30 14:17 135 2 gusting 8 11.7
2015-Mar-30 14:02 292 3 gusting 9 10.6
2015-Mar-30 13:47 158 4 gusting 11 10.6
2015-Mar-30 13:32 135 6 gusting 9 10.6
2015-Mar-30 13:17 068 2 gusting 3 10.6
2015-Mar-30 13:02 022 0 gusting 3 10.6
2015-Mar-30 12:47 292 1 gusting 4 10.6
2015-Mar-30 12:32 068 1 gusting 5 10.6
2015-Mar-30 12:17 022 2 gusting 5 10.0
2015-Mar-30 12:02 112 3 gusting 5 10.0
2015-Mar-30 11:47 068 1 gusting 5 10.0
2015-Mar-30 11:32 338 0 gusting 3 10.0
2015-Mar-30 11:17 022 9.4
2015-Mar-30 11:02 135 5 gusting 8 9.4
2015-Mar-30 10:47 180 0 gusting 6 9.4
2015-Mar-30 10:32 045 2 gusting 9 9.4
2015-Mar-30 10:17 158 5 gusting 7 8.9
2015-Mar-30 10:02 112 1 gusting 7 8.9
2015-Mar-30 09:47 112 2 gusting 11 8.3
2015-Mar-30 09:32 158 8 gusting 7 8.3
2015-Mar-30 09:17 112 0 gusting 5 8.9
2015-Mar-30 09:02 045 3 gusting 6 8.3
2015-Mar-30 08:47 158 6 gusting 5 8.3
2015-Mar-30 08:32 338 2 gusting 2 8.3
2015-Mar-30 08:17 338 1 gusting 5 7.8
2015-Mar-30 08:02 158 1 gusting 4 7.2
2015-Mar-30 07:47 022 0 gusting 3 7.2
2015-Mar-30 07:32 180 1 gusting 3 7.2
2015-Mar-30 07:17 292 6.7
2015-Mar-30 07:02 090 6.7
2015-Mar-30 06:47 045 1 gusting 4 6.1
2015-Mar-30 06:32 270 3 gusting 3 5.6
2015-Mar-30 06:17 022 0 gusting 3 5.6
2015-Mar-30 06:02 180 1 gusting 2 5.0
2015-Mar-30 05:47 270 4.4
2015-Mar-30 05:32 068 4.4
2015-Mar-30 05:17 180 1 gusting 3 3.9
2015-Mar-30 05:02 292 3.9
2015-Mar-30 04:47 135 3 gusting 5 3.9
2015-Mar-30 04:32 135 3.9
2015-Mar-30 04:17 158 0 gusting 3 3.9
2015-Mar-30 04:02 270 3 gusting 5 3.3
2015-Mar-30 03:47 3.9
2015-Mar-30 03:32 068 1 gusting 2 3.9
2015-Mar-30 03:17 270 1 gusting 3 3.9
2015-Mar-30 03:02 180 3.9
2015-Mar-30 02:47 180 3.9
2015-Mar-30 02:32 270 3.9
2015-Mar-30 02:17 270 3.9
2015-Mar-30 02:02 270 4.4
2015-Mar-30 01:47 338 0 gusting 2 4.4
2015-Mar-30 01:32 292 1 gusting 5 5.0
2015-Mar-30 01:17 135 1 gusting 2 5.0
2015-Mar-30 01:02 180 5.0
2015-Mar-30 00:47 180 0 gusting 1 5.0
2015-Mar-30 00:32 112 0 gusting 3 5.6
2015-Mar-30 00:17 158 2 gusting 1 5.6
2015-Mar-30 00:02 292 0 gusting 2 5.6
2015-Mar-29 23:47 270 0 gusting 3 5.6
2015-Mar-29 23:32 158 1 gusting 1 6.1
2015-Mar-29 23:17 338 6.1
2015-Mar-29 23:02 068 6.7
2015-Mar-29 22:47 158 1 gusting 2 6.7
2015-Mar-29 22:32 7.2
2015-Mar-29 22:17 135 7.2
2015-Mar-29 22:02 180 7.2
2015-Mar-29 21:47 180 7.8
2015-Mar-29 21:32 135 1 gusting 2 8.3
2015-Mar-29 21:17 068 1 gusting 1 8.3
2015-Mar-29 21:02 068 8.3
2015-Mar-29 20:47 068 8.9
2015-Mar-29 20:32 158 8.9
2015-Mar-29 20:17 090 1 gusting 3 8.9
2015-Mar-29 20:02 338 0 gusting 2 9.4
2015-Mar-29 19:47 180 1 gusting 5 9.4
2015-Mar-29 19:32 022 3 gusting 4 10.0
2015-Mar-29 19:17 112 10.0
2015-Mar-29 19:02 180 1 gusting 4 10.6
2015-Mar-29 18:47 158 1 gusting 4 10.6
2015-Mar-29 18:32 180 3 gusting 5 11.1
2015-Mar-29 18:17 158 11.1
2015-Mar-29 18:02 270 2 gusting 4 11.7
2015-Mar-29 17:47 180 2 gusting 5 11.7
2015-Mar-29 17:32 158 11.7
2015-Mar-29 17:17 270 1 gusting 6 11.7
2015-Mar-29 17:02 158 1 gusting 8 12.2
2015-Mar-29 16:47 270 0 gusting 5 12.2
2015-Mar-29 16:32 12.8
2015-Mar-29 16:17 158 4 gusting 9 13.3
2015-Mar-29 16:02 292 2 gusting 6 13.3
2015-Mar-29 15:47 270 5 gusting 7 13.9
2015-Mar-29 15:32 292 3 gusting 6 13.9
2015-Mar-29 15:17 13.9
2015-Mar-29 15:02 022 1 gusting 8 13.3
2015-Mar-29 14:47 022 0 gusting 9 13.9
2015-Mar-29 14:32 338 5 gusting 9 12.8
2015-Mar-29 14:17 270 6 gusting 7 13.3
2015-Mar-29 14:02 270 2 gusting 10 12.8
2015-Mar-29 13:47 270 3 gusting 8 12.8
2015-Mar-29 13:32 180 1 gusting 9 12.8
2015-Mar-29 13:17 270 3 gusting 8 12.8
2015-Mar-29 13:02 338 4 gusting 10 12.2
2015-Mar-29 12:47 022 1 gusting 9 11.7
2015-Mar-29 12:32 338 6 gusting 8 11.7
2015-Mar-29 12:17 292 6 gusting 10 11.7
2015-Mar-29 12:02 270 3 gusting 5 12.8
2015-Mar-29 11:47 180 1 gusting 5 12.2
2015-Mar-29 11:32 338 0 gusting 5 11.7
2015-Mar-29 11:17 112 1 gusting 5 11.1
2015-Mar-29 11:02 10.6
2015-Mar-29 10:47 022 10.0
2015-Mar-29 10:32 270 3 gusting 6 9.4
2015-Mar-29 10:17 270 3 gusting 8 9.4
2015-Mar-29 10:02 270 1 gusting 6 9.4
2015-Mar-29 09:47 068 2 gusting 7 8.9
2015-Mar-29 09:32 315 0 gusting 3 9.4
2015-Mar-29 09:17 022 1 gusting 5 8.9
2015-Mar-29 09:02 270 1 gusting 3 8.9
2015-Mar-29 08:47 045 0 gusting 3 8.3
2015-Mar-29 08:32 180 2 gusting 4 7.2
2015-Mar-29 08:17 292 2 gusting 8 7.8
2015-Mar-29 08:02 180 3 gusting 6 7.8